createdAt,value
2019-01-20T02:58:08.974Z,0.00
2019-01-20T03:16:08.764Z,0.00
2019-01-20T03:30:08.618Z,0.00
2019-01-20T03:34:08.626Z,0.00
2019-01-20T03:48:33.816Z,0.00
2019-01-20T04:42:58.393Z,0.00
2019-01-20T04:55:58.262Z,0.00
2019-01-20T05:19:58.017Z,0.00
2019-01-20T06:49:57.081Z,0.00
2019-01-20T06:52:57.057Z,4.00
2019-01-20T08:36:55.975Z,2468.00
2019-01-20T09:43:55.276Z,3196.00
2019-01-20T10:34:19.422Z,3372.00
2019-01-20T11:12:43.859Z,3400.00
2019-01-20T12:37:42.990Z,3364.00
2019-01-20T12:41:42.934Z,3344.00
2019-01-20T12:57:42.759Z,3300.00
2019-01-20T13:00:42.729Z,3308.00
2019-01-20T13:09:42.640Z,3288.00
2019-01-20T13:15:42.577Z,3272.00
2019-01-20T13:16:42.588Z,3268.00
2019-01-20T13:19:42.539Z,3244.00
2019-01-20T13:20:42.516Z,3236.00
2019-01-20T13:21:42.505Z,3232.00
2019-01-20T13:22:42.506Z,3228.00
2019-01-20T13:23:42.488Z,3232.00
2019-01-20T13:24:42.498Z,3220.00
2019-01-20T13:25:42.475Z,3216.00
2019-01-20T13:26:42.453Z,3212.00
2019-01-20T13:27:42.453Z,3208.00
2019-01-20T13:28:42.450Z,3208.00
2019-01-20T13:29:42.427Z,3208.00
2019-01-20T13:30:42.425Z,3204.00
2019-01-20T13:31:42.402Z,3200.00
2019-01-20T13:32:42.393Z,3196.00
2019-01-20T13:33:42.466Z,3188.00
2019-01-20T13:34:42.370Z,3184.00
2019-01-20T13:35:42.362Z,3176.00
2019-01-20T13:36:42.372Z,3168.00
2019-01-20T13:37:42.345Z,3160.00
2019-01-20T13:38:42.352Z,3152.00
2019-01-20T13:39:42.332Z,3160.00
2019-01-20T13:40:42.765Z,3148.00
2019-01-20T13:41:42.300Z,3140.00
2019-01-20T13:42:42.291Z,3136.00
2019-01-20T13:43:42.413Z,3128.00
2019-01-20T13:44:46.145Z,3120.00
2019-01-20T13:45:42.261Z,3108.00
2019-01-20T13:46:42.261Z,3100.00
2019-01-20T13:47:48.524Z,3088.00
2019-01-20T13:49:09.989Z,3076.00
2019-01-20T13:50:09.979Z,3068.00
2019-01-20T13:51:09.964Z,3064.00
2019-01-20T13:52:09.959Z,3060.00
2019-01-20T13:53:09.961Z,3052.00
2019-01-20T13:54:09.930Z,3048.00
2019-01-20T13:55:09.947Z,3040.00
2019-01-20T13:56:09.920Z,3032.00
2019-01-20T13:57:09.900Z,3032.00
2019-01-20T13:58:09.922Z,3024.00
2019-01-20T13:59:09.879Z,3016.00
2019-01-20T14:00:10.569Z,3012.00
2019-01-20T14:01:09.867Z,3004.00
2019-01-20T14:02:09.856Z,2996.00
2019-01-20T14:03:09.841Z,2988.00
2019-01-20T14:04:09.844Z,2980.00
2019-01-20T14:05:09.835Z,2972.00
2019-01-20T14:06:09.812Z,2964.00
2019-01-20T14:07:09.798Z,2956.00
2019-01-20T14:08:09.793Z,2944.00
2019-01-20T14:09:09.786Z,2932.00
2019-01-20T14:10:09.790Z,2920.00
2019-01-20T14:11:09.765Z,2908.00
2019-01-20T14:12:09.753Z,2896.00
2019-01-20T14:13:09.737Z,2888.00
2019-01-20T14:14:09.731Z,2880.00
2019-01-20T14:15:09.725Z,2860.00
2019-01-20T14:16:09.705Z,2844.00
2019-01-20T14:17:09.714Z,2828.00
2019-01-20T14:18:09.693Z,2812.00
2019-01-20T14:19:09.678Z,2800.00
2019-01-20T14:20:09.667Z,2788.00
2019-01-20T14:21:09.667Z,2780.00
2019-01-20T14:22:09.644Z,2772.00
2019-01-20T14:23:09.635Z,2760.00
2019-01-20T14:24:09.626Z,2744.00
2019-01-20T14:25:09.611Z,2732.00
2019-01-20T14:26:09.614Z,2720.00
2019-01-20T14:27:09.603Z,2712.00
2019-01-20T14:28:09.596Z,2700.00
2019-01-20T14:29:09.577Z,2688.00
2019-01-20T14:30:09.561Z,2676.00
2019-01-20T14:31:09.570Z,2668.00
2019-01-20T14:32:09.541Z,2648.00
2019-01-20T14:33:09.532Z,2632.00
2019-01-20T14:34:09.533Z,2620.00
2019-01-20T14:35:09.580Z,2612.00
2019-01-20T14:36:09.514Z,2600.00
2019-01-20T14:37:09.496Z,2584.00
2019-01-20T14:38:09.524Z,2572.00
2019-01-20T14:39:09.474Z,2556.00
2019-01-20T14:40:09.467Z,2540.00
2019-01-20T14:41:09.455Z,2524.00
2019-01-20T14:42:09.445Z,2504.00
2019-01-20T14:43:09.497Z,2488.00
2019-01-20T14:44:09.418Z,2464.00
2019-01-20T14:45:09.424Z,2448.00
2019-01-20T14:46:09.398Z,2432.00
2019-01-20T14:47:09.387Z,2416.00
2019-01-20T14:48:09.382Z,2396.00
2019-01-20T14:49:09.409Z,2376.00
2019-01-20T14:50:09.394Z,2360.00
2019-01-20T14:51:09.348Z,2344.00
2019-01-20T14:52:09.356Z,2324.00
2019-01-20T14:53:09.340Z,2300.00
2019-01-20T14:54:09.326Z,2280.00
2019-01-20T14:55:09.427Z,2264.00
2019-01-20T14:56:09.300Z,2240.00
2019-01-20T14:57:09.304Z,2228.00
2019-01-20T14:58:09.281Z,2200.00
2019-01-20T14:59:09.273Z,2180.00
2019-01-20T15:00:13.941Z,2164.00
2019-01-20T15:01:09.305Z,2144.00
2019-01-20T15:02:09.248Z,2120.00
2019-01-20T15:03:09.229Z,2100.00
2019-01-20T15:04:09.286Z,2080.00
2019-01-20T15:05:09.203Z,2052.00
2019-01-20T15:06:09.198Z,2032.00
2019-01-20T15:07:09.183Z,2012.00
2019-01-20T15:08:09.186Z,1988.00
2019-01-20T15:09:09.180Z,1964.00
2019-01-20T15:10:09.163Z,1936.00
2019-01-20T15:11:09.144Z,1908.00
2019-01-20T15:12:09.131Z,1888.00
2019-01-20T15:13:09.170Z,1860.00
2019-01-20T15:14:09.226Z,1832.00
2019-01-20T15:15:10.128Z,1804.00
2019-01-20T15:16:09.095Z,1780.00
2019-01-20T15:17:09.079Z,1756.00
2019-01-20T15:18:09.099Z,1724.00
2019-01-20T15:19:09.071Z,1696.00
2019-01-20T15:20:09.056Z,1668.00
2019-01-20T15:21:09.045Z,1636.00
2019-01-20T15:22:10.411Z,1604.00
2019-01-20T15:23:09.020Z,1572.00
2019-01-20T15:24:09.015Z,1544.00
2019-01-20T15:25:08.998Z,1512.00
2019-01-20T15:26:09.017Z,1476.00
2019-01-20T15:27:08.992Z,1444.00
2019-01-20T15:28:08.993Z,1412.00
2019-01-20T15:29:08.960Z,1376.00
2019-01-20T15:30:08.952Z,1344.00
2019-01-20T15:31:08.938Z,1312.00
2019-01-20T15:32:08.939Z,1276.00
2019-01-20T15:33:08.931Z,1240.00
2019-01-20T15:34:08.928Z,1204.00
2019-01-20T15:35:08.895Z,1168.00
2019-01-20T15:36:08.897Z,1136.00
2019-01-20T15:37:08.874Z,1096.00
2019-01-20T15:38:08.881Z,1064.00
2019-01-20T15:59:33.600Z,356.00
2019-01-20T16:17:33.412Z,52.00
2019-01-20T16:35:58.642Z,4.00
2019-01-20T16:38:58.604Z,4.00
2019-01-20T17:44:57.917Z,0.00
2019-01-20T23:45:49.443Z,0.00
